Time;durP1;ratioP1;P1;durP2;ratioP2;P2;SDS_P1;SDS_P2;PMS_P1;PMS_P2;Temp;Humidity;BMP_temperature;BMP_pressure;BME280_temperature;BME280_humidity;BME280_pressure;Samples;Min_cycle;Max_cycle;Signal;HPM_P1;HPM_P2
2021/12/28 00:00:42;;;;;;;5.30;3.50;;;;;;;;;;5055848;28;20184;-77
2021/12/28 00:03:08;;;;;;;3.73;3.10;;;;;;;;;;5054638;28;20187;-77
2021/12/28 00:05:34;;;;;;;3.80;3.07;;;;;;;;;;5054742;28;20181;-77
2021/12/28 00:08:01;;;;;;;4.60;3.17;;;;;;;;;;5054849;28;20181;-77
2021/12/28 00:10:27;;;;;;;4.00;3.17;;;;;;;;;;5071316;28;20291;-77
2021/12/28 00:12:54;;;;;;;3.97;3.30;;;;;;;;;;5054803;28;20173;-77
2021/12/28 00:18:00;;;;;;;3.40;2.47;;;;;;;;;;5076443;28;20214;-78
2021/12/28 00:20:40;;;;;;;3.20;2.30;;;;;;;;;;5059187;28;20185;-77
2021/12/28 00:23:10;;;;;;;3.03;2.40;;;;;;;;;;5058714;28;20274;-77
2021/12/28 00:25:36;;;;;;;2.50;2.30;;;;;;;;;;5074825;28;20183;-77
2021/12/28 00:28:03;;;;;;;2.47;2.07;;;;;;;;;;5074915;28;20263;-77
2021/12/28 00:30:29;;;;;;;2.20;1.80;;;;;;;;;;5074349;28;20193;-77
2021/12/28 00:32:56;;;;;;;2.00;1.80;;;;;;;;;;5058161;28;20176;-76
2021/12/28 00:35:31;;;;;;;1.87;1.67;;;;;;;;;;5074937;28;20678;-77
2021/12/28 00:37:58;;;;;;;2.27;1.80;;;;;;;;;;5074543;28;20650;-77
2021/12/28 00:40:24;;;;;;;2.00;1.80;;;;;;;;;;5057824;28;20228;-77
2021/12/28 00:42:50;;;;;;;2.00;1.80;;;;;;;;;;5058114;28;20315;-77
2021/12/28 00:45:17;;;;;;;2.20;1.80;;;;;;;;;;5058079;28;20271;-77
2021/12/28 00:47:43;;;;;;;2.10;1.90;;;;;;;;;;5057998;28;20184;-77
2021/12/28 00:50:10;;;;;;;2.50;2.10;;;;;;;;;;5074272;28;20271;-77
2021/12/28 00:52:36;;;;;;;3.03;2.10;;;;;;;;;;5057468;28;20204;-77
2021/12/28 00:55:03;;;;;;;2.30;2.10;;;;;;;;;;5057591;28;20200;-77
2021/12/28 00:57:29;;;;;;;2.53;2.30;;;;;;;;;;5057325;28;20209;-76
2021/12/28 00:59:56;;;;;;;2.83;2.40;;;;;;;;;;5057230;28;20181;-76
2021/12/28 01:02:22;;;;;;;2.27;2.07;;;;;;;;;;5074112;28;20222;-77
2021/12/28 01:04:48;;;;;;;2.50;2.30;;;;;;;;;;5057439;28;20208;-77
2021/12/28 01:07:14;;;;;;;2.70;2.47;;;;;;;;;;5073844;28;20280;-77
2021/12/28 01:09:41;;;;;;;2.10;1.90;;;;;;;;;;5057474;28;20217;-77
2021/12/28 01:12:07;;;;;;;2.40;2.20;;;;;;;;;;5057094;28;20204;-77
2021/12/28 01:14:34;;;;;;;2.50;2.17;;;;;;;;;;5073972;28;20247;-77
2021/12/28 01:17:00;;;;;;;3.17;2.20;;;;;;;;;;5057292;28;20200;-77
2021/12/28 01:19:26;;;;;;;2.60;2.30;;;;;;;;;;5057395;28;20172;-77
2021/12/28 01:21:53;;;;;;;2.93;2.30;;;;;;;;;;5056815;28;20179;-77
2021/12/28 01:24:19;;;;;;;2.70;2.50;;;;;;;;;;5073493;28;20197;-77
2021/12/28 01:26:46;;;;;;;2.60;2.10;;;;;;;;;;5073055;28;20181;-77
2021/12/28 01:29:12;;;;;;;2.30;2.10;;;;;;;;;;5073839;28;20177;-77
2021/12/28 01:31:38;;;;;;;4.10;2.67;;;;;;;;;;5056861;28;20208;-77
2021/12/28 01:34:08;;;;;;;3.10;2.73;;;;;;;;;;5073434;28;20213;-77
2021/12/28 01:36:34;;;;;;;3.10;2.70;;;;;;;;;;5057071;28;20185;-77
2021/12/28 01:39:01;;;;;;;4.00;2.87;;;;;;;;;;5056750;28;20664;-77
2021/12/28 01:41:27;;;;;;;3.20;2.67;;;;;;;;;;5073274;28;20181;-77
2021/12/28 01:43:57;;;;;;;4.20;2.53;;;;;;;;;;5056840;28;20201;-77
2021/12/28 01:46:23;;;;;;;5.20;3.00;;;;;;;;;;5073419;28;20173;-77
2021/12/28 01:48:49;;;;;;;4.80;3.23;;;;;;;;;;5056585;28;20177;-77
2021/12/28 01:51:20;;;;;;;5.00;3.13;;;;;;;;;;5072849;28;20293;-77
2021/12/28 01:53:47;;;;;;;6.40;3.40;;;;;;;;;;5056964;28;20199;-77
2021/12/28 01:56:15;;;;;;;5.07;3.60;;;;;;;;;;5072831;28;20173;-77
2021/12/28 01:58:41;;;;;;;4.37;3.67;;;;;;;;;;5073421;28;20173;-77
2021/12/28 02:01:08;;;;;;;5.00;3.30;;;;;;;;;;5056367;28;20549;-76
2021/12/28 02:03:35;;;;;;;5.13;3.60;;;;;;;;;;5073105;28;20271;-77
2021/12/28 02:06:01;;;;;;;4.80;3.30;;;;;;;;;;5056674;28;20193;-77
2021/12/28 02:08:27;;;;;;;4.20;3.17;;;;;;;;;;5072971;28;20181;-76
2021/12/28 02:10:54;;;;;;;5.30;3.80;;;;;;;;;;5072683;28;20261;-77
2021/12/28 02:13:21;;;;;;;5.90;3.30;;;;;;;;;;5072576;28;20216;-77
2021/12/28 02:15:47;;;;;;;4.57;3.30;;;;;;;;;;5072918;28;20192;-77
2021/12/28 02:18:14;;;;;;;7.07;3.60;;;;;;;;;;5072701;28;20177;-77
2021/12/28 02:20:41;;;;;;;5.90;4.00;;;;;;;;;;5072494;28;20590;-77
2021/12/28 02:23:07;;;;;;;4.83;3.40;;;;;;;;;;5072614;28;20639;-77
2021/12/28 02:25:35;;;;;;;5.03;3.43;;;;;;;;;;5072442;28;20542;-77
2021/12/28 02:28:01;;;;;;;7.30;3.77;;;;;;;;;;5056180;28;20652;-78
2021/12/28 02:30:27;;;;;;;5.77;3.63;;;;;;;;;;5072393;28;20288;-77
2021/12/28 02:32:53;;;;;;;9.67;3.70;;;;;;;;;;5072482;28;20174;-77
2021/12/28 02:35:24;;;;;;;6.50;3.73;;;;;;;;;;5072531;28;20189;-78
2021/12/28 02:37:51;;;;;;;9.67;3.77;;;;;;;;;;5055138;28;20183;-77
2021/12/28 02:40:19;;;;;;;9.37;3.87;;;;;;;;;;5072063;28;20178;-77
2021/12/28 02:42:45;;;;;;;6.07;4.10;;;;;;;;;;5055324;28;20231;-77
2021/12/28 02:45:16;;;;;;;6.67;4.37;;;;;;;;;;5055541;28;20606;-77
2021/12/28 02:47:43;;;;;;;8.20;4.20;;;;;;;;;;5072198;28;20223;-78
2021/12/28 02:50:21;;;;;;;8.30;4.43;;;;;;;;;;5071812;28;20172;-77
2021/12/28 02:52:47;;;;;;;5.77;4.03;;;;;;;;;;5072286;28;20173;-77
2021/12/28 02:55:15;;;;;;;7.07;4.37;;;;;;;;;;5072183;28;20189;-77
2021/12/28 02:57:54;;;;;;;6.43;4.13;;;;;;;;;;5072403;28;20204;-77
2021/12/28 03:00:33;;;;;;;8.70;4.17;;;;;;;;;;5072120;28;20265;-77
2021/12/28 03:02:59;;;;;;;7.03;4.07;;;;;;;;;;5072075;28;20171;-77
2021/12/28 03:05:25;;;;;;;8.57;4.43;;;;;;;;;;5055699;28;20169;-77
2021/12/28 03:07:51;;;;;;;7.70;3.97;;;;;;;;;;5071953;28;20180;-78
2021/12/28 03:10:17;;;;;;;6.70;3.77;;;;;;;;;;5071949;28;20170;-77
2021/12/28 03:12:43;;;;;;;6.13;3.60;;;;;;;;;;5072114;28;20243;-77
2021/12/28 03:15:09;;;;;;;5.77;3.40;;;;;;;;;;5055114;28;20605;-78
2021/12/28 03:17:38;;;;;;;7.03;3.50;;;;;;;;;;5055292;28;20268;-78
2021/12/28 03:20:05;;;;;;;7.13;3.50;;;;;;;;;;5055177;28;20181;-78
2021/12/28 03:22:36;;;;;;;7.37;3.70;;;;;;;;;;5071592;28;20187;-78
2021/12/28 03:25:02;;;;;;;7.70;3.73;;;;;;;;;;5071392;28;20193;-77
2021/12/28 03:27:28;;;;;;;9.90;3.60;;;;;;;;;;5054892;28;20211;-78
2021/12/28 03:29:54;;;;;;;7.53;3.83;;;;;;;;;;5055506;28;20417;-77
2021/12/28 03:32:20;;;;;;;6.93;3.27;;;;;;;;;;5054638;28;20301;-77
2021/12/28 03:34:46;;;;;;;7.60;3.50;;;;;;;;;;5054870;28;20238;-77
2021/12/28 03:37:12;;;;;;;7.27;2.90;;;;;;;;;;5055136;28;20526;-78
2021/12/28 03:39:38;;;;;;;8.70;3.20;;;;;;;;;;5055111;28;20212;-77
2021/12/28 03:42:05;;;;;;;6.00;2.77;;;;;;;;;;5054615;28;20247;-77
2021/12/28 03:44:31;;;;;;;8.97;2.87;;;;;;;;;;5071394;28;20248;-78
2021/12/28 03:46:57;;;;;;;8.57;3.20;;;;;;;;;;5071579;28;20178;-78
2021/12/28 03:49:23;;;;;;;10.20;3.70;;;;;;;;;;5074316;28;20220;-77
2021/12/28 03:51:49;;;;;;;7.67;3.13;;;;;;;;;;5058931;28;20239;-77
2021/12/28 03:54:15;;;;;;;13.50;3.23;;;;;;;;;;5058910;28;20210;-78
2021/12/28 03:56:41;;;;;;;9.97;3.37;;;;;;;;;;5075082;28;20187;-78
2021/12/28 03:59:07;;;;;;;7.33;3.00;;;;;;;;;;5058868;28;20186;-77
2021/12/28 04:01:33;;;;;;;7.33;3.10;;;;;;;;;;5075376;28;20576;-78
2021/12/28 04:03:59;;;;;;;8.93;3.20;;;;;;;;;;5075384;28;20205;-78
2021/12/28 04:06:25;;;;;;;8.97;3.40;;;;;;;;;;5075532;28;20179;-77
2021/12/28 04:08:51;;;;;;;6.17;2.50;;;;;;;;;;5059207;28;20277;-77
2021/12/28 04:13:48;;;;;;;5.73;2.33;;;;;;;;;;5076925;28;20199;-78
2021/12/28 04:16:14;;;;;;;7.60;2.50;;;;;;;;;;5059016;28;20267;-77
2021/12/28 04:18:41;;;;;;;8.13;2.73;;;;;;;;;;5075005;28;20176;-77
2021/12/28 04:21:08;;;;;;;10.57;2.67;;;;;;;;;;5074780;28;20247;-77
2021/12/28 04:23:34;;;;;;;8.37;2.67;;;;;;;;;;5075144;28;20241;-78
2021/12/28 04:26:00;;;;;;;11.03;2.73;;;;;;;;;;5074929;28;20186;-77
2021/12/28 04:28:26;;;;;;;9.33;2.63;;;;;;;;;;5074830;28;20175;-78
2021/12/28 04:30:53;;;;;;;13.03;3.30;;;;;;;;;;5058205;28;20560;-78
2021/12/28 04:33:19;;;;;;;10.87;2.80;;;;;;;;;;5074653;28;20677;-77
2021/12/28 04:35:45;;;;;;;13.00;3.07;;;;;;;;;;5058397;28;20194;-77
2021/12/28 04:38:11;;;;;;;8.53;2.70;;;;;;;;;;5058065;28;20635;-77
2021/12/28 04:40:38;;;;;;;7.63;2.50;;;;;;;;;;5057647;28;20279;-77
2021/12/28 04:43:04;;;;;;;6.20;2.40;;;;;;;;;;5058262;28;20186;-77
2021/12/28 04:45:30;;;;;;;9.50;2.70;;;;;;;;;;5058197;28;20646;-78
2021/12/28 04:47:56;;;;;;;12.17;2.87;;;;;;;;;;5057879;28;20188;-78
2021/12/28 04:50:23;;;;;;;9.90;2.80;;;;;;;;;;5057517;28;20274;-78
2021/12/28 04:52:49;;;;;;;9.33;2.87;;;;;;;;;;5058242;28;20190;-77
2021/12/28 04:55:17;;;;;;;6.63;2.47;;;;;;;;;;5057544;28;20212;-78
2021/12/28 04:57:44;;;;;;;8.37;3.33;;;;;;;;;;5057709;28;20172;-78
2021/12/28 05:00:12;;;;;;;7.33;2.73;;;;;;;;;;5056392;28;20191;-77
2021/12/28 05:02:38;;;;;;;8.73;2.80;;;;;;;;;;5057802;28;20184;-77
2021/12/28 05:05:04;;;;;;;7.13;2.40;;;;;;;;;;5057688;28;20203;-77
2021/12/28 05:07:30;;;;;;;9.40;2.50;;;;;;;;;;5057600;28;20310;-78
2021/12/28 05:09:58;;;;;;;5.30;2.80;;;;;;;;;;5073872;28;20232;-78
2021/12/28 05:12:25;;;;;;;5.83;2.00;;;;;;;;;;5073798;28;20238;-78
2021/12/28 05:14:51;;;;;;;7.60;2.20;;;;;;;;;;5074120;28;20291;-78
2021/12/28 05:17:17;;;;;;;9.73;2.70;;;;;;;;;;5057559;28;20554;-78
2021/12/28 05:19:43;;;;;;;7.17;2.60;;;;;;;;;;5057379;28;20634;-78
2021/12/28 05:22:09;;;;;;;7.03;2.30;;;;;;;;;;5073667;28;20190;-77
2021/12/28 05:24:36;;;;;;;6.57;2.83;;;;;;;;;;5074028;28;20275;-78
2021/12/28 05:27:02;;;;;;;7.63;2.13;;;;;;;;;;5073918;28;20218;-78
2021/12/28 05:29:28;;;;;;;7.50;1.97;;;;;;;;;;5073845;28;20258;-78
2021/12/28 05:31:54;;;;;;;5.03;2.20;;;;;;;;;;5073707;28;20239;-78
2021/12/28 05:34:20;;;;;;;4.93;2.13;;;;;;;;;;5057017;28;20224;-77
2021/12/28 05:36:46;;;;;;;5.37;2.20;;;;;;;;;;5055643;28;20183;-77
2021/12/28 05:39:12;;;;;;;4.80;1.90;;;;;;;;;;5056390;28;20206;-77
2021/12/28 05:41:38;;;;;;;3.43;1.70;;;;;;;;;;5072743;28;20686;-77
2021/12/28 05:44:05;;;;;;;6.40;1.70;;;;;;;;;;5056265;28;20207;-77
2021/12/28 05:46:31;;;;;;;3.50;1.40;;;;;;;;;;5072919;28;20177;-77
2021/12/28 05:48:57;;;;;;;4.50;1.63;;;;;;;;;;5056059;28;20655;-77
2021/12/28 05:51:23;;;;;;;6.70;1.97;;;;;;;;;;5072232;28;20203;-77
2021/12/28 05:53:49;;;;;;;3.50;1.80;;;;;;;;;;5056091;28;20220;-77
2021/12/28 05:56:15;;;;;;;4.97;2.00;;;;;;;;;;5055822;28;20177;-77
2021/12/28 05:58:42;;;;;;;5.00;2.13;;;;;;;;;;5072585;28;20179;-77
2021/12/28 06:01:08;;;;;;;6.13;2.90;;;;;;;;;;5072243;28;20208;-77
2021/12/28 06:03:34;;;;;;;4.60;2.20;;;;;;;;;;5072122;28;20215;-77
2021/12/28 06:06:00;;;;;;;5.07;2.20;;;;;;;;;;5072214;28;20184;-77
2021/12/28 06:08:26;;;;;;;4.97;2.30;;;;;;;;;;5055891;28;20275;-81
2021/12/28 06:10:52;;;;;;;5.30;2.20;;;;;;;;;;5055536;28;20574;-82
2021/12/28 06:13:19;;;;;;;4.90;2.40;;;;;;;;;;5072598;28;20200;-80
2021/12/28 06:15:45;;;;;;;4.17;1.93;;;;;;;;;;5055839;28;20223;-80
2021/12/28 06:18:11;;;;;;;2.40;1.80;;;;;;;;;;5055846;28;20675;-80
2021/12/28 06:20:38;;;;;;;3.60;2.00;;;;;;;;;;5072042;28;20267;-80
2021/12/28 06:23:04;;;;;;;3.43;1.90;;;;;;;;;;5072087;28;20172;-80
2021/12/28 06:25:30;;;;;;;5.17;1.73;;;;;;;;;;5056075;28;20669;-81
2021/12/28 06:27:56;;;;;;;3.33;2.30;;;;;;;;;;5072356;28;20225;-80
2021/12/28 06:30:22;;;;;;;4.47;1.90;;;;;;;;;;5071914;28;20217;-81
2021/12/28 06:32:48;;;;;;;2.40;1.90;;;;;;;;;;5055526;28;20187;-81
2021/12/28 06:35:14;;;;;;;5.83;2.00;;;;;;;;;;5055375;28;20623;-81
2021/12/28 06:37:41;;;;;;;3.50;2.10;;;;;;;;;;5055408;28;20657;-81
2021/12/28 06:40:07;;;;;;;3.80;1.97;;;;;;;;;;5072025;28;20176;-81
2021/12/28 06:42:33;;;;;;;6.37;2.10;;;;;;;;;;5071673;28;20177;-81
2021/12/28 06:44:59;;;;;;;3.80;2.03;;;;;;;;;;5071727;28;20203;-81
2021/12/28 06:47:25;;;;;;;6.57;2.73;;;;;;;;;;5071758;28;20179;-81
2021/12/28 06:49:51;;;;;;;4.43;2.00;;;;;;;;;;5071739;28;20183;-81
2021/12/28 06:52:17;;;;;;;6.13;2.20;;;;;;;;;;5054837;28;20203;-81
2021/12/28 06:54:44;;;;;;;5.03;1.90;;;;;;;;;;5055230;28;20683;-81
2021/12/28 06:57:11;;;;;;;3.87;1.70;;;;;;;;;;5055209;28;20267;-81
2021/12/28 06:59:40;;;;;;;4.60;1.80;;;;;;;;;;5071448;28;20176;-81
2021/12/28 07:02:06;;;;;;;7.00;1.90;;;;;;;;;;5071247;28;20644;-80
2021/12/28 07:04:33;;;;;;;5.10;1.40;;;;;;;;;;5071854;28;20196;-80
2021/12/28 07:06:59;;;;;;;3.43;1.90;;;;;;;;;;5071457;28;20267;-80
2021/12/28 07:09:25;;;;;;;4.83;1.50;;;;;;;;;;5054959;28;20282;-81
2021/12/28 07:11:51;;;;;;;3.97;1.50;;;;;;;;;;5054720;28;20653;-81
2021/12/28 07:14:17;;;;;;;3.07;1.60;;;;;;;;;;5054944;28;20202;-79
2021/12/28 07:16:43;;;;;;;5.83;1.70;;;;;;;;;;5055154;28;20270;-80
2021/12/28 07:19:11;;;;;;;3.80;1.70;;;;;;;;;;5071660;28;20266;-78
2021/12/28 07:21:37;;;;;;;4.43;1.40;;;;;;;;;;5054786;28;20708;-78
2021/12/28 07:24:04;;;;;;;3.20;1.53;;;;;;;;;;5053769;28;20206;-77
2021/12/28 07:26:30;;;;;;;2.67;1.50;;;;;;;;;;5071047;28;20175;-78
2021/12/28 07:28:56;;;;;;;3.40;1.57;;;;;;;;;;5054341;28;20183;-77
2021/12/28 07:31:22;;;;;;;3.60;1.57;;;;;;;;;;5054268;28;20204;-79
2021/12/28 07:33:48;;;;;;;3.90;1.67;;;;;;;;;;5054325;28;20212;-80
2021/12/28 07:36:15;;;;;;;2.73;1.40;;;;;;;;;;5054450;28;20261;-78
2021/12/28 07:38:41;;;;;;;3.77;1.50;;;;;;;;;;5054340;28;20187;-80
2021/12/28 07:41:08;;;;;;;3.10;1.40;;;;;;;;;;5070839;28;20212;-78
2021/12/28 07:43:34;;;;;;;2.67;1.40;;;;;;;;;;5070833;28;20267;-79
2021/12/28 07:46:00;;;;;;;2.37;1.30;;;;;;;;;;5070811;28;20178;-77
2021/12/28 07:48:26;;;;;;;2.10;1.30;;;;;;;;;;5054479;28;20179;-77
2021/12/28 07:50:52;;;;;;;2.67;1.30;;;;;;;;;;5054106;28;20210;-79
2021/12/28 07:53:18;;;;;;;4.13;1.40;;;;;;;;;;5054390;28;20223;-79
2021/12/28 07:55:44;;;;;;;3.60;1.27;;;;;;;;;;5070673;28;20175;-82
2021/12/28 07:58:10;;;;;;;2.27;1.37;;;;;;;;;;5070609;28;20176;-78
2021/12/28 08:00:37;;;;;;;4.50;1.60;;;;;;;;;;5053675;28;20589;-78
2021/12/28 08:03:04;;;;;;;1.53;1.30;;;;;;;;;;5070732;28;20175;-78
2021/12/28 08:05:31;;;;;;;3.87;1.80;;;;;;;;;;5070676;28;20271;-77
2021/12/28 08:07:57;;;;;;;2.50;1.60;;;;;;;;;;5053808;28;20180;-78
2021/12/28 08:10:24;;;;;;;3.23;1.60;;;;;;;;;;5070508;28;20181;-79
2021/12/28 08:12:51;;;;;;;3.40;1.50;;;;;;;;;;5070485;28;20180;-78
2021/12/28 08:15:18;;;;;;;1.97;1.37;;;;;;;;;;5070514;28;20184;-78
2021/12/28 08:17:44;;;;;;;1.40;1.30;;;;;;;;;;5054192;28;20180;-80
2021/12/28 08:20:11;;;;;;;1.47;1.33;;;;;;;;;;5070393;28;20172;-79
2021/12/28 08:22:38;;;;;;;1.73;1.40;;;;;;;;;;5070543;28;20180;-79
2021/12/28 08:25:05;;;;;;;1.87;1.40;;;;;;;;;;5070553;28;20232;-79
2021/12/28 08:27:31;;;;;;;1.23;1.00;;;;;;;;;;5070217;28;20181;-80
2021/12/28 08:29:57;;;;;;;1.87;1.20;;;;;;;;;;5070497;28;20179;-80
2021/12/28 08:32:23;;;;;;;1.40;1.20;;;;;;;;;;5070171;28;20215;-80
2021/12/28 08:34:49;;;;;;;1.20;1.10;;;;;;;;;;5071677;28;20560;-79
2021/12/28 08:37:16;;;;;;;1.30;1.20;;;;;;;;;;5074112;28;20186;-79
2021/12/28 08:39:42;;;;;;;1.60;1.20;;;;;;;;;;5074169;28;20237;-79
2021/12/28 08:42:08;;;;;;;1.47;1.10;;;;;;;;;;5073740;28;20181;-79
2021/12/28 08:44:34;;;;;;;1.47;1.17;;;;;;;;;;5074026;28;20681;-79
2021/12/28 08:47:00;;;;;;;2.07;1.17;;;;;;;;;;5074280;28;20184;-79
2021/12/28 08:49:26;;;;;;;1.90;1.30;;;;;;;;;;5057353;28;20185;-79
2021/12/28 08:51:54;;;;;;;2.77;1.30;;;;;;;;;;5073563;28;20259;-79
2021/12/28 08:54:20;;;;;;;1.30;1.00;;;;;;;;;;5073626;28;20193;-79
2021/12/28 08:56:47;;;;;;;1.70;1.20;;;;;;;;;;5073614;28;20210;-80
2021/12/28 08:59:13;;;;;;;1.30;1.20;;;;;;;;;;5073962;28;20546;-79
2021/12/28 09:01:39;;;;;;;3.03;1.00;;;;;;;;;;5056991;28;20183;-79
2021/12/28 09:04:05;;;;;;;1.50;1.10;;;;;;;;;;5073573;28;20198;-80
2021/12/28 09:06:31;;;;;;;1.03;0.93;;;;;;;;;;5056916;28;20185;-82
2021/12/28 09:08:58;;;;;;;1.30;1.00;;;;;;;;;;5056966;28;20223;-81
2021/12/28 09:11:24;;;;;;;2.40;1.00;;;;;;;;;;5073380;28;20211;-80
2021/12/28 09:13:50;;;;;;;1.13;1.00;;;;;;;;;;5056880;28;20232;-80
2021/12/28 09:16:16;;;;;;;1.20;1.10;;;;;;;;;;5073628;28;20207;-79
2021/12/28 09:18:42;;;;;;;1.20;1.00;;;;;;;;;;5073187;28;20694;-76
2021/12/28 09:21:08;;;;;;;1.47;1.13;;;;;;;;;;5072962;28;20338;-76
2021/12/28 09:23:35;;;;;;;1.20;1.10;;;;;;;;;;5073218;28;20197;-76
2021/12/28 09:26:01;;;;;;;1.10;1.00;;;;;;;;;;5073051;28;20178;-76
2021/12/28 09:28:27;;;;;;;1.10;1.00;;;;;;;;;;5056716;28;20190;-75
2021/12/28 09:30:53;;;;;;;1.63;1.27;;;;;;;;;;5072783;28;20189;-77
2021/12/28 09:33:19;;;;;;;1.30;1.20;;;;;;;;;;5056473;28;20239;-78
2021/12/28 09:35:46;;;;;;;1.40;1.20;;;;;;;;;;5056409;28;20241;-77
2021/12/28 09:38:12;;;;;;;1.10;1.00;;;;;;;;;;5072792;28;20175;-77
2021/12/28 09:40:38;;;;;;;2.77;1.20;;;;;;;;;;5072487;28;20667;-78
2021/12/28 09:43:05;;;;;;;1.47;1.20;;;;;;;;;;5056475;28;20178;-78
2021/12/28 09:45:33;;;;;;;1.07;0.97;;;;;;;;;;5056150;28;20189;-80
2021/12/28 09:47:59;;;;;;;1.83;1.10;;;;;;;;;;5072620;28;20180;-80
2021/12/28 09:50:25;;;;;;;1.70;1.00;;;;;;;;;;5055994;28;20178;-80
2021/12/28 09:52:51;;;;;;;1.40;1.23;;;;;;;;;;5056319;28;20193;-80
2021/12/28 09:55:19;;;;;;;0.80;0.80;;;;;;;;;;5072716;28;20185;-80
2021/12/28 09:57:45;;;;;;;1.20;1.10;;;;;;;;;;5072597;28;20178;-81
2021/12/28 10:00:12;;;;;;;0.87;0.83;;;;;;;;;;5072685;28;20182;-80
2021/12/28 10:02:38;;;;;;;1.10;1.00;;;;;;;;;;5072373;28;20256;-80
2021/12/28 10:05:07;;;;;;;1.00;0.83;;;;;;;;;;5072462;28;20203;-80
2021/12/28 10:07:34;;;;;;;1.20;0.77;;;;;;;;;;5072255;28;20599;-80
2021/12/28 10:10:00;;;;;;;1.00;0.90;;;;;;;;;;5072218;28;20180;-79
2021/12/28 10:12:30;;;;;;;0.80;0.70;;;;;;;;;;5072161;28;20212;-80
2021/12/28 10:15:00;;;;;;;1.03;0.60;;;;;;;;;;5072378;28;20203;-80
2021/12/28 10:17:27;;;;;;;0.93;0.83;;;;;;;;;;5055905;28;20204;-80
2021/12/28 10:19:53;;;;;;;1.70;0.80;;;;;;;;;;5055778;28;20184;-77
2021/12/28 10:22:22;;;;;;;0.77;0.60;;;;;;;;;;5055513;28;20188;-77
2021/12/28 10:24:49;;;;;;;0.93;0.83;;;;;;;;;;5072658;28;20235;-78
2021/12/28 10:27:16;;;;;;;0.70;0.70;;;;;;;;;;5071939;28;20191;-79
2021/12/28 10:29:42;;;;;;;0.80;0.60;;;;;;;;;;5072235;28;20270;-77
2021/12/28 10:32:15;;;;;;;0.90;0.70;;;;;;;;;;5055444;28;20602;-76
2021/12/28 10:34:47;;;;;;;0.70;0.70;;;;;;;;;;5064893;28;20240;-80
2021/12/28 10:37:14;;;;;;;0.63;0.60;;;;;;;;;;5067234;28;20174;-78
2021/12/28 10:39:48;;;;;;;0.90;0.57;;;;;;;;;;5052193;28;20271;-80
2021/12/28 10:42:32;;;;;;;0.70;0.67;;;;;;;;;;5082228;28;20191;-80
2021/12/28 10:44:59;;;;;;;0.60;0.60;;;;;;;;;;5066544;28;20191;-80
2021/12/28 10:47:26;;;;;;;0.80;0.60;;;;;;;;;;5071722;28;20194;-80
2021/12/28 10:49:52;;;;;;;0.60;0.60;;;;;;;;;;5055519;28;20596;-79
2021/12/28 10:52:25;;;;;;;0.63;0.63;;;;;;;;;;5055102;28;20242;-81
2021/12/28 10:54:51;;;;;;;0.60;0.60;;;;;;;;;;5071542;28;20192;-79
2021/12/28 10:57:17;;;;;;;0.50;0.50;;;;;;;;;;5054596;28;20226;-76
2021/12/28 10:59:43;;;;;;;0.70;0.50;;;;;;;;;;5054240;28;20207;-77
2021/12/28 11:02:09;;;;;;;0.50;0.50;;;;;;;;;;5054792;28;20672;-77
2021/12/28 11:04:38;;;;;;;0.40;0.40;;;;;;;;;;5054864;28;20298;-77
2021/12/28 11:07:06;;;;;;;0.50;0.50;;;;;;;;;;5071261;28;20187;-77
2021/12/28 11:09:32;;;;;;;0.63;0.63;;;;;;;;;;5054706;28;20188;-78
2021/12/28 11:11:58;;;;;;;0.50;0.50;;;;;;;;;;5070900;28;20195;-77
2021/12/28 11:14:27;;;;;;;0.80;0.63;;;;;;;;;;5070950;28;20203;-77
2021/12/28 11:16:54;;;;;;;0.70;0.70;;;;;;;;;;5071251;28;20183;-77
2021/12/28 11:19:31;;;;;;;0.90;0.70;;;;;;;;;;5071082;28;20176;-77
2021/12/28 11:21:59;;;;;;;0.63;0.63;;;;;;;;;;5071040;28;20175;-78
2021/12/28 11:24:32;;;;;;;1.17;0.70;;;;;;;;;;5054479;28;20266;-78
2021/12/28 11:26:58;;;;;;;0.60;0.60;;;;;;;;;;5054537;28;20219;-77
2021/12/28 11:29:30;;;;;;;0.73;0.70;;;;;;;;;;5071068;28;20176;-78
2021/12/28 11:32:01;;;;;;;0.80;0.70;;;;;;;;;;5070912;28;20210;-79
2021/12/28 11:34:31;;;;;;;0.57;0.57;;;;;;;;;;5073665;22;20232;-81
2021/12/28 11:37:00;;;;;;;0.77;0.77;;;;;;;;;;5014252;28;20216;-79
2021/12/28 11:39:37;;;;;;;0.60;0.60;;;;;;;;;;5032014;28;20170;-79
2021/12/28 11:42:04;;;;;;;0.80;0.80;;;;;;;;;;5032198;28;20178;-78
2021/12/28 11:44:31;;;;;;;0.60;0.60;;;;;;;;;;5034809;28;20197;-78
2021/12/28 11:46:58;;;;;;;0.70;0.70;;;;;;;;;;5032943;28;20192;-78
2021/12/28 11:49:28;;;;;;;0.73;0.73;;;;;;;;;;5017216;28;20260;-80
2021/12/28 11:52:00;;;;;;;1.20;0.60;;;;;;;;;;5033472;28;20209;-79
2021/12/28 11:54:27;;;;;;;1.13;0.80;;;;;;;;;;5032922;28;20208;-79
2021/12/28 11:57:00;;;;;;;0.70;0.70;;;;;;;;;;5033316;28;20707;-79
2021/12/28 11:59:29;;;;;;;0.63;0.63;;;;;;;;;;5018335;28;20181;-79
2021/12/28 12:01:55;;;;;;;0.87;0.80;;;;;;;;;;5035364;28;20210;-79
2021/12/28 12:04:28;;;;;;;0.70;0.70;;;;;;;;;;5033648;28;20192;-79
2021/12/28 12:07:12;;;;;;;1.23;0.80;;;;;;;;;;5032549;28;20696;-79
2021/12/28 12:09:51;;;;;;;0.80;0.80;;;;;;;;;;5033377;28;20186;-80
2021/12/28 12:12:18;;;;;;;0.83;0.83;;;;;;;;;;5035504;28;20236;-80
2021/12/28 12:14:50;;;;;;;1.07;0.97;;;;;;;;;;5035821;28;20292;-80
2021/12/28 12:17:34;;;;;;;0.80;0.80;;;;;;;;;;5037100;28;20201;-80
2021/12/28 12:20:06;;;;;;;1.40;0.80;;;;;;;;;;5036032;28;20184;-80
2021/12/28 12:22:36;;;;;;;0.70;0.70;;;;;;;;;;5019427;28;20246;-80
2021/12/28 12:25:05;;;;;;;0.70;0.70;;;;;;;;;;5035544;28;20236;-80
2021/12/28 12:27:37;;;;;;;1.00;0.90;;;;;;;;;;5035843;28;20634;-80
2021/12/28 12:30:04;;;;;;;1.37;0.90;;;;;;;;;;5035594;28;20182;-80
2021/12/28 12:32:50;;;;;;;1.10;0.90;;;;;;;;;;5019121;28;20215;-80
2021/12/28 12:35:29;;;;;;;1.10;1.00;;;;;;;;;;5024748;28;20231;-80
2021/12/28 12:37:55;;;;;;;0.80;0.80;;;;;;;;;;5035300;28;20288;-80
2021/12/28 12:40:21;;;;;;;1.13;0.97;;;;;;;;;;5034836;28;20236;-79
2021/12/28 12:43:09;;;;;;;0.90;0.90;;;;;;;;;;5035384;28;20228;-79
2021/12/28 12:45:58;;;;;;;0.93;0.90;;;;;;;;;;5035145;28;20202;-80
2021/12/28 12:48:36;;;;;;;0.90;0.90;;;;;;;;;;5027326;28;20193;-79
2021/12/28 12:53:50;;;;;;;1.43;0.90;;;;;;;;;;5036722;28;20229;-79
2021/12/28 12:56:27;;;;;;;1.03;0.97;;;;;;;;;;5035203;28;20185;-80
2021/12/28 12:58:54;;;;;;;1.00;0.90;;;;;;;;;;5036254;28;20164;-80
2021/12/28 13:01:36;;;;;;;1.20;1.10;;;;;;;;;;5034552;28;20208;-80
2021/12/28 13:04:02;;;;;;;1.30;1.17;;;;;;;;;;5034581;28;20658;-79
2021/12/28 13:06:40;;;;;;;1.77;1.20;;;;;;;;;;5018046;28;20186;-80
2021/12/28 13:09:07;;;;;;;1.40;1.30;;;;;;;;;;5034744;28;20260;-80
2021/12/28 13:11:34;;;;;;;1.60;1.50;;;;;;;;;;5034472;28;20197;-79
2021/12/28 13:14:00;;;;;;;1.60;1.50;;;;;;;;;;5017990;28;20232;-80
2021/12/28 13:16:26;;;;;;;1.50;1.40;;;;;;;;;;5034401;28;20235;-80
2021/12/28 13:19:06;;;;;;;1.40;1.30;;;;;;;;;;5018113;28;20193;-79
2021/12/28 13:21:32;;;;;;;1.50;1.40;;;;;;;;;;5033771;28;20189;-80
2021/12/28 13:24:07;;;;;;;1.50;1.40;;;;;;;;;;5017906;28;20747;-80
2021/12/28 13:26:46;;;;;;;1.40;1.30;;;;;;;;;;5034880;28;20177;-79
2021/12/28 13:29:22;;;;;;;1.20;1.10;;;;;;;;;;5034298;28;20177;-80
2021/12/28 13:31:48;;;;;;;1.57;1.10;;;;;;;;;;5034507;28;20193;-80
2021/12/28 13:34:14;;;;;;;1.33;1.10;;;;;;;;;;5034535;28;20219;-82
2021/12/28 13:36:58;;;;;;;1.23;1.13;;;;;;;;;;5017933;28;20177;-79
2021/12/28 13:39:24;;;;;;;1.73;1.30;;;;;;;;;;5017846;28;20185;-81
2021/12/28 13:41:51;;;;;;;2.13;1.20;;;;;;;;;;5017264;28;20178;-81
2021/12/28 13:44:17;;;;;;;1.10;1.00;;;;;;;;;;5017170;28;20290;-81
2021/12/28 13:46:43;;;;;;;1.47;1.37;;;;;;;;;;5033987;28;20624;-80
2021/12/28 13:49:14;;;;;;;1.40;1.30;;;;;;;;;;5033888;28;20257;-81
2021/12/28 13:51:40;;;;;;;1.60;1.50;;;;;;;;;;5033572;28;20189;-81
2021/12/28 13:54:06;;;;;;;1.43;1.33;;;;;;;;;;5017166;28;20260;-81
2021/12/28 13:56:35;;;;;;;2.23;1.33;;;;;;;;;;5016929;28;20182;-81
2021/12/28 13:59:07;;;;;;;1.50;1.40;;;;;;;;;;5033392;28;20175;-82
2021/12/28 14:01:39;;;;;;;1.50;1.40;;;;;;;;;;5035054;28;20170;-83
2021/12/28 14:04:19;;;;;;;1.40;1.30;;;;;;;;;;5018704;28;20202;-79
2021/12/28 14:06:46;;;;;;;1.50;1.40;;;;;;;;;;5016798;28;20270;-79
2021/12/28 14:09:13;;;;;;;1.70;1.57;;;;;;;;;;5033556;28;20272;-79
2021/12/28 14:11:39;;;;;;;1.50;1.40;;;;;;;;;;5034249;28;20201;-82
2021/12/28 14:14:26;;;;;;;1.50;1.40;;;;;;;;;;5033281;28;20190;-83
2021/12/28 14:16:52;;;;;;;1.50;1.40;;;;;;;;;;5016919;28;20178;-83
2021/12/28 14:19:19;;;;;;;1.70;1.60;;;;;;;;;;5034517;28;20180;-82
2021/12/28 14:21:46;;;;;;;2.80;1.53;;;;;;;;;;5016721;28;20189;-82
2021/12/28 14:24:13;;;;;;;1.37;1.20;;;;;;;;;;5016621;28;20213;-82
2021/12/28 14:26:45;;;;;;;1.17;1.07;;;;;;;;;;5016867;28;20227;-83
2021/12/28 14:29:15;;;;;;;2.17;1.20;;;;;;;;;;5034268;28;20171;-83
2021/12/28 14:31:51;;;;;;;1.20;1.10;;;;;;;;;;5033069;28;20206;-83
2021/12/28 14:34:30;;;;;;;1.83;1.00;;;;;;;;;;5032861;28;20214;-82
2021/12/28 14:37:01;;;;;;;1.37;1.00;;;;;;;;;;5034054;28;20170;-82
2021/12/28 14:39:32;;;;;;;1.17;1.07;;;;;;;;;;5016734;28;20175;-82
2021/12/28 14:42:07;;;;;;;1.10;1.00;;;;;;;;;;5032770;28;20236;-82
2021/12/28 14:44:33;;;;;;;1.17;1.00;;;;;;;;;;5016559;28;20201;-82
2021/12/28 14:47:01;;;;;;;1.30;1.20;;;;;;;;;;5016793;28;20210;-82
2021/12/28 14:49:30;;;;;;;1.30;1.20;;;;;;;;;;5016243;28;20209;-83
2021/12/28 14:52:11;;;;;;;1.30;1.20;;;;;;;;;;5016139;28;20210;-82
2021/12/28 14:54:38;;;;;;;1.30;1.20;;;;;;;;;;5032182;28;20205;-82